DAL2445 KDCA-KATL
Flight info
| Callsign | DAL2445 |
|---|---|
| Flight time | 1h 19m |
| Altitude | 34000 |
| Route | CLTCH3 FLASK OZZZI2 |
| Aircraft | B738/M-SDE2E3FGHIRWXY/LB1 |
Departure
| Time | 2026-05-06 01:56 |
|---|---|
| Airport | Ronald Reagan Washington National Airport (KDCA) |
Arrival
| Time | 2026-05-06 03:15 |
|---|---|
| Airport | Hartsfield Jackson Atlanta International Airport (KATL) |
| Time | Latitude | Longitude | Altitude | Speed | Heading |
|---|---|---|---|---|---|
| 2026-05-06 01:11 | 38.85251 | -77.04160 | 23 ft | 0 kts | 162° |
| 2026-05-06 01:41 | 38.85252 | -77.04160 | 23 ft | 0 kts | 162° |
| 2026-05-06 01:41 | 38.85266 | -77.04167 | 24 ft | 2 kts | 179° |
| 2026-05-06 01:41 | 38.85288 | -77.04165 | 26 ft | 3 kts | 181° |
| 2026-05-06 01:42 | 38.85299 | -77.04170 | 28 ft | 2 kts | 85° |
| 2026-05-06 01:42 | 38.85297 | -77.04184 | 29 ft | 2 kts | 74° |
| 2026-05-06 01:42 | 38.85295 | -77.04191 | 29 ft | 0 kts | 72° |
| 2026-05-06 01:45 | 38.85297 | -77.04183 | 26 ft | 2 kts | 71° |
| 2026-05-06 01:46 | 38.85301 | -77.04166 | 28 ft | 2 kts | 71° |
| 2026-05-06 01:46 | 38.85308 | -77.04141 | 25 ft | 4 kts | 71° |
| 2026-05-06 01:46 | 38.85318 | -77.04103 | 23 ft | 4 kts | 71° |
| 2026-05-06 01:46 | 38.85328 | -77.04067 | 25 ft | 4 kts | 72° |
| 2026-05-06 01:47 | 38.85337 | -77.04011 | 23 ft | 10 kts | 82° |
| 2026-05-06 01:47 | 38.85376 | -77.03942 | 24 ft | 11 kts | 8° |
| 2026-05-06 01:47 | 38.85453 | -77.03947 | 23 ft | 12 kts | 355° |
| 2026-05-06 01:47 | 38.85542 | -77.03956 | 25 ft | 14 kts | 355° |
| 2026-05-06 01:48 | 38.85639 | -77.03965 | 27 ft | 14 kts | 355° |
| 2026-05-06 01:48 | 38.85736 | -77.03975 | 28 ft | 14 kts | 355° |
| 2026-05-06 01:48 | 38.85832 | -77.03985 | 28 ft | 14 kts | 356° |
| 2026-05-06 01:48 | 38.85932 | -77.03982 | 26 ft | 14 kts | 14° |
| 2026-05-06 01:49 | 38.85999 | -77.03959 | 25 ft | 1 kts | 16° |
| 2026-05-06 01:54 | 38.86003 | -77.03957 | 27 ft | 5 kts | 16° |
| 2026-05-06 01:54 | 38.86064 | -77.03938 | 25 ft | 10 kts | 13° |
| 2026-05-06 01:55 | 38.86100 | -77.03885 | 22 ft | 3 kts | 125° |
| 2026-05-06 01:55 | 38.86062 | -77.03868 | 23 ft | 11 kts | 172° |
| 2026-05-06 01:55 | 38.85856 | -77.03846 | 26 ft | 64 kts | 176° |
| 2026-05-06 01:55 | 38.85158 | -77.03775 | 23 ft | 136 kts | 175° |
| 2026-05-06 01:56 | 38.84102 | -77.03677 | 520 ft | 154 kts | 175° |
| 2026-05-06 01:56 | 38.83069 | -77.03463 | 1488 ft | 146 kts | 180° |
| 2026-05-06 01:56 | 38.82086 | -77.03470 | 2344 ft | 141 kts | 189° |
| 2026-05-06 01:56 | 38.81081 | -77.03522 | 3057 ft | 146 kts | 189° |
| 2026-05-06 01:57 | 38.80008 | -77.03561 | 3551 ft | 167 kts | 188° |
| 2026-05-06 01:57 | 38.78785 | -77.03607 | 4089 ft | 179 kts | 188° |
| 2026-05-06 01:57 | 38.77525 | -77.03667 | 4683 ft | 186 kts | 189° |
| 2026-05-06 01:57 | 38.76225 | -77.03909 | 5131 ft | 192 kts | 205° |
| 2026-05-06 01:58 | 38.75164 | -77.04992 | 5492 ft | 208 kts | 235° |
| 2026-05-06 01:58 | 38.74685 | -77.06884 | 5752 ft | 240 kts | 260° |
| 2026-05-06 01:58 | 38.74619 | -77.08995 | 6730 ft | 236 kts | 263° |
| 2026-05-06 01:58 | 38.74547 | -77.11124 | 7445 ft | 244 kts | 262° |
| 2026-05-06 01:59 | 38.74396 | -77.13350 | 7954 ft | 257 kts | 255° |
| 2026-05-06 01:59 | 38.73719 | -77.15467 | 8693 ft | 259 kts | 240° |
| 2026-05-06 01:59 | 38.72884 | -77.17523 | 9483 ft | 262 kts | 244° |
| 2026-05-06 01:59 | 38.72076 | -77.19647 | 10205 ft | 269 kts | 244° |
| 2026-05-06 02:00 | 38.71218 | -77.21895 | 10433 ft | 293 kts | 244° |
| 2026-05-06 02:00 | 38.70300 | -77.24301 | 10600 ft | 316 kts | 244° |
| 2026-05-06 02:00 | 38.69304 | -77.26908 | 10766 ft | 337 kts | 244° |
| 2026-05-06 02:00 | 38.68245 | -77.29681 | 11084 ft | 352 kts | 244° |
| 2026-05-06 02:01 | 38.67164 | -77.32509 | 11722 ft | 355 kts | 244° |
| 2026-05-06 02:01 | 38.66070 | -77.35371 | 12399 ft | 358 kts | 244° |
| 2026-05-06 02:01 | 38.64972 | -77.38238 | 13097 ft | 361 kts | 244° |
| 2026-05-06 02:01 | 38.63859 | -77.41143 | 13736 ft | 365 kts | 244° |
| 2026-05-06 02:02 | 38.62737 | -77.44070 | 14325 ft | 367 kts | 244° |
| 2026-05-06 02:02 | 38.61609 | -77.47009 | 14907 ft | 370 kts | 244° |
| 2026-05-06 02:02 | 38.60476 | -77.49957 | 15520 ft | 372 kts | 244° |
| 2026-05-06 02:02 | 38.59324 | -77.52951 | 16129 ft | 374 kts | 243° |
| 2026-05-06 02:03 | 38.58172 | -77.55945 | 16735 ft | 376 kts | 243° |
| 2026-05-06 02:03 | 38.57028 | -77.58912 | 17313 ft | 378 kts | 243° |
| 2026-05-06 02:03 | 38.55861 | -77.61937 | 17900 ft | 380 kts | 243° |
| 2026-05-06 02:03 | 38.54689 | -77.64973 | 18400 ft | 383 kts | 243° |
| 2026-05-06 02:04 | 38.53506 | -77.68035 | 18852 ft | 386 kts | 243° |
| 2026-05-06 02:04 | 38.52309 | -77.71130 | 19288 ft | 390 kts | 243° |
| 2026-05-06 02:04 | 38.51103 | -77.74243 | 19743 ft | 393 kts | 244° |
| 2026-05-06 02:04 | 38.49890 | -77.77375 | 20208 ft | 395 kts | 244° |
| 2026-05-06 02:05 | 38.48664 | -77.80534 | 20649 ft | 398 kts | 244° |
| 2026-05-06 02:05 | 38.47431 | -77.83712 | 21067 ft | 401 kts | 244° |
| 2026-05-06 02:05 | 38.46184 | -77.86918 | 21491 ft | 404 kts | 244° |
| 2026-05-06 02:05 | 38.44918 | -77.90129 | 21899 ft | 407 kts | 243° |
| 2026-05-06 02:06 | 38.43390 | -77.93194 | 22274 ft | 411 kts | 237° |
| 2026-05-06 02:06 | 38.41720 | -77.96175 | 22644 ft | 415 kts | 236° |
| 2026-05-06 02:06 | 38.40031 | -77.99177 | 23009 ft | 417 kts | 237° |
| 2026-05-06 02:06 | 38.38336 | -78.02197 | 23381 ft | 420 kts | 237° |
| 2026-05-06 02:07 | 38.36638 | -78.05235 | 23699 ft | 423 kts | 237° |
| 2026-05-06 02:07 | 38.34931 | -78.08296 | 24011 ft | 424 kts | 237° |
| 2026-05-06 02:07 | 38.33216 | -78.11376 | 24329 ft | 426 kts | 237° |
| 2026-05-06 02:07 | 38.31520 | -78.14425 | 24642 ft | 428 kts | 237° |
| 2026-05-06 02:08 | 38.29798 | -78.17516 | 24959 ft | 429 kts | 237° |
| 2026-05-06 02:08 | 38.28063 | -78.20628 | 25246 ft | 431 kts | 237° |
| 2026-05-06 02:08 | 38.26321 | -78.23751 | 25529 ft | 433 kts | 237° |
| 2026-05-06 02:08 | 38.24571 | -78.26884 | 25812 ft | 435 kts | 237° |
| 2026-05-06 02:09 | 38.22812 | -78.30030 | 26080 ft | 437 kts | 237° |
| 2026-05-06 02:09 | 38.21049 | -78.33181 | 26382 ft | 438 kts | 238° |
| 2026-05-06 02:09 | 38.19286 | -78.36328 | 26757 ft | 437 kts | 238° |
| 2026-05-06 02:09 | 38.17518 | -78.39479 | 27208 ft | 435 kts | 238° |
| 2026-05-06 02:10 | 38.15752 | -78.42542 | 27592 ft | 435 kts | 237° |
| 2026-05-06 02:10 | 38.13920 | -78.45615 | 27847 ft | 437 kts | 236° |
| 2026-05-06 02:10 | 38.12063 | -78.48692 | 28095 ft | 440 kts | 236° |
| 2026-05-06 02:10 | 38.10193 | -78.51781 | 28387 ft | 441 kts | 236° |
| 2026-05-06 02:11 | 38.08332 | -78.54862 | 28749 ft | 440 kts | 237° |
| 2026-05-06 02:11 | 38.06470 | -78.57950 | 29168 ft | 438 kts | 237° |
| 2026-05-06 02:11 | 38.04623 | -78.61019 | 29557 ft | 438 kts | 237° |
| 2026-05-06 02:11 | 38.02775 | -78.64093 | 29883 ft | 438 kts | 237° |
| 2026-05-06 02:12 | 38.00925 | -78.67172 | 30192 ft | 438 kts | 237° |
| 2026-05-06 02:12 | 37.99079 | -78.70243 | 30516 ft | 437 kts | 238° |
| 2026-05-06 02:12 | 37.97257 | -78.73270 | 30848 ft | 436 kts | 238° |
| 2026-05-06 02:12 | 37.95420 | -78.76318 | 31156 ft | 435 kts | 238° |
| 2026-05-06 02:13 | 37.93582 | -78.79366 | 31458 ft | 434 kts | 239° |
| 2026-05-06 02:13 | 37.91925 | -78.82110 | 31757 ft | 433 kts | 239° |
| 2026-05-06 02:13 | 37.90096 | -78.85137 | 32073 ft | 432 kts | 240° |
| 2026-05-06 02:13 | 37.88269 | -78.88157 | 32405 ft | 431 kts | 240° |
| 2026-05-06 02:14 | 37.86454 | -78.91155 | 32716 ft | 430 kts | 240° |
| 2026-05-06 02:14 | 37.84633 | -78.94160 | 33033 ft | 429 kts | 241° |
| 2026-05-06 02:14 | 37.82811 | -78.97165 | 33303 ft | 429 kts | 241° |
| 2026-05-06 02:14 | 37.81000 | -79.00149 | 33664 ft | 427 kts | 242° |
| 2026-05-06 02:15 | 37.79201 | -79.03108 | 33947 ft | 426 kts | 242° |
| 2026-05-06 02:15 | 37.77385 | -79.06099 | 33925 ft | 428 kts | 242° |
| 2026-05-06 02:15 | 37.73781 | -79.12019 | 33962 ft | 426 kts | 242° |
| 2026-05-06 02:16 | 37.70175 | -79.17931 | 33957 ft | 424 kts | 242° |
| 2026-05-06 02:16 | 37.66606 | -79.23840 | 33959 ft | 421 kts | 243° |
| 2026-05-06 02:17 | 37.63108 | -79.29759 | 33966 ft | 420 kts | 243° |
| 2026-05-06 02:17 | 37.59618 | -79.35664 | 33974 ft | 420 kts | 243° |
| 2026-05-06 02:18 | 37.56120 | -79.41556 | 33959 ft | 419 kts | 243° |
| 2026-05-06 02:18 | 37.52621 | -79.47433 | 33960 ft | 420 kts | 243° |
| 2026-05-06 02:19 | 37.49112 | -79.53317 | 33969 ft | 420 kts | 243° |
| 2026-05-06 02:19 | 37.45611 | -79.59169 | 33963 ft | 421 kts | 243° |
| 2026-05-06 02:20 | 37.40314 | -79.68011 | 33990 ft | 422 kts | 243° |
| 2026-05-06 02:21 | 37.36771 | -79.73910 | 33995 ft | 423 kts | 243° |
| 2026-05-06 02:21 | 37.33224 | -79.79804 | 33995 ft | 422 kts | 242° |
| 2026-05-06 02:22 | 37.29681 | -79.85681 | 34003 ft | 421 kts | 242° |
| 2026-05-06 02:22 | 37.26138 | -79.91550 | 34008 ft | 421 kts | 242° |
| 2026-05-06 02:23 | 37.22602 | -79.97399 | 34009 ft | 420 kts | 242° |
| 2026-05-06 02:23 | 37.19090 | -80.03196 | 33997 ft | 420 kts | 242° |
| 2026-05-06 02:24 | 37.15557 | -80.09019 | 33976 ft | 420 kts | 242° |
| 2026-05-06 02:24 | 37.12023 | -80.14832 | 33999 ft | 419 kts | 242° |
| 2026-05-06 02:25 | 37.08487 | -80.20639 | 34021 ft | 419 kts | 242° |
| 2026-05-06 02:25 | 37.04953 | -80.26437 | 34018 ft | 419 kts | 242° |
| 2026-05-06 02:26 | 37.01381 | -80.32237 | 34011 ft | 423 kts | 239° |
| 2026-05-06 02:26 | 36.97311 | -80.37679 | 34005 ft | 431 kts | 234° |
| 2026-05-06 02:27 | 36.93038 | -80.42961 | 33996 ft | 432 kts | 234° |
| 2026-05-06 02:27 | 36.88824 | -80.48228 | 33978 ft | 431 kts | 235° |
| 2026-05-06 02:28 | 36.84617 | -80.53563 | 33990 ft | 430 kts | 235° |
| 2026-05-06 02:28 | 36.80430 | -80.58895 | 34000 ft | 430 kts | 235° |
| 2026-05-06 02:29 | 36.76245 | -80.64221 | 34028 ft | 429 kts | 235° |
| 2026-05-06 02:29 | 36.72064 | -80.69530 | 34023 ft | 429 kts | 235° |
| 2026-05-06 02:30 | 36.67888 | -80.74823 | 34036 ft | 428 kts | 235° |
| 2026-05-06 02:30 | 36.63713 | -80.80107 | 34016 ft | 428 kts | 235° |
| 2026-05-06 02:31 | 36.59532 | -80.85389 | 34017 ft | 428 kts | 235° |
| 2026-05-06 02:31 | 36.55351 | -80.90662 | 33996 ft | 428 kts | 235° |
| 2026-05-06 02:32 | 36.51188 | -80.95904 | 33986 ft | 428 kts | 235° |
| 2026-05-06 02:32 | 36.47003 | -81.01166 | 34004 ft | 428 kts | 235° |
| 2026-05-06 02:33 | 36.42808 | -81.06432 | 34017 ft | 429 kts | 235° |
| 2026-05-06 02:33 | 36.41419 | -81.08173 | 34021 ft | 428 kts | 235° |
| 2026-05-06 02:34 | 36.34402 | -81.16960 | 34037 ft | 430 kts | 235° |
| 2026-05-06 02:34 | 36.30181 | -81.22232 | 34045 ft | 431 kts | 234° |
| 2026-05-06 02:35 | 36.25951 | -81.27514 | 34046 ft | 433 kts | 234° |
| 2026-05-06 02:35 | 36.21735 | -81.32772 | 34031 ft | 433 kts | 234° |
| 2026-05-06 02:36 | 36.17485 | -81.38063 | 34007 ft | 433 kts | 234° |
| 2026-05-06 02:36 | 36.13228 | -81.43354 | 33985 ft | 434 kts | 234° |
| 2026-05-06 02:37 | 36.08970 | -81.48638 | 33979 ft | 433 kts | 234° |
| 2026-05-06 02:37 | 36.04722 | -81.53902 | 33982 ft | 432 kts | 235° |
| 2026-05-06 02:38 | 36.00491 | -81.59135 | 34005 ft | 430 kts | 235° |
| 2026-05-06 02:38 | 35.96264 | -81.64355 | 34029 ft | 429 kts | 235° |
| 2026-05-06 02:39 | 35.92038 | -81.69568 | 34030 ft | 428 kts | 235° |
| 2026-05-06 02:39 | 35.87821 | -81.74761 | 34030 ft | 428 kts | 235° |
| 2026-05-06 02:40 | 35.83605 | -81.79947 | 34029 ft | 428 kts | 235° |
| 2026-05-06 02:40 | 35.79417 | -81.85088 | 34015 ft | 428 kts | 235° |
| 2026-05-06 02:41 | 35.75155 | -81.90230 | 34006 ft | 429 kts | 234° |
| 2026-05-06 02:41 | 35.70863 | -81.95348 | 33984 ft | 429 kts | 234° |
| 2026-05-06 02:42 | 35.66579 | -82.00458 | 33993 ft | 429 kts | 235° |
| 2026-05-06 02:42 | 35.62291 | -82.05574 | 34012 ft | 429 kts | 235° |
| 2026-05-06 02:43 | 35.58002 | -82.10686 | 34010 ft | 430 kts | 235° |
| 2026-05-06 02:43 | 35.53732 | -82.15766 | 34010 ft | 430 kts | 235° |
| 2026-05-06 02:44 | 35.49430 | -82.20881 | 34000 ft | 430 kts | 235° |
| 2026-05-06 02:44 | 35.45128 | -82.25983 | 34008 ft | 430 kts | 235° |
| 2026-05-06 02:45 | 35.40850 | -82.31091 | 34026 ft | 429 kts | 236° |
| 2026-05-06 02:45 | 35.36663 | -82.36307 | 34032 ft | 428 kts | 237° |
| 2026-05-06 02:46 | 35.32492 | -82.41525 | 34029 ft | 428 kts | 237° |
| 2026-05-06 02:46 | 35.28335 | -82.46691 | 34033 ft | 429 kts | 237° |
| 2026-05-06 02:47 | 35.24142 | -82.51882 | 34020 ft | 429 kts | 237° |
| 2026-05-06 02:47 | 35.19949 | -82.57063 | 34019 ft | 428 kts | 237° |
| 2026-05-06 02:48 | 35.15750 | -82.62245 | 34017 ft | 428 kts | 236° |
| 2026-05-06 02:48 | 35.11478 | -82.67353 | 34007 ft | 430 kts | 235° |
| 2026-05-06 02:49 | 35.07166 | -82.72440 | 34006 ft | 430 kts | 235° |
| 2026-05-06 02:49 | 35.02881 | -82.77507 | 34009 ft | 429 kts | 236° |
| 2026-05-06 02:50 | 34.98587 | -82.82595 | 34025 ft | 430 kts | 236° |
| 2026-05-06 02:50 | 34.94316 | -82.87646 | 33996 ft | 431 kts | 235° |
| 2026-05-06 02:50 | 34.92133 | -82.90214 | 33395 ft | 437 kts | 234° |
| 2026-05-06 02:51 | 34.89932 | -82.92767 | 32678 ft | 437 kts | 233° |
| 2026-05-06 02:51 | 34.87727 | -82.95311 | 32016 ft | 436 kts | 232° |
| 2026-05-06 02:51 | 34.85523 | -82.97852 | 31273 ft | 437 kts | 232° |
| 2026-05-06 02:51 | 34.83313 | -83.00404 | 30537 ft | 438 kts | 231° |
| 2026-05-06 02:52 | 34.81099 | -83.02962 | 29691 ft | 440 kts | 230° |
| 2026-05-06 02:52 | 34.78864 | -83.05544 | 28806 ft | 441 kts | 230° |
| 2026-05-06 02:52 | 34.76681 | -83.08060 | 28264 ft | 435 kts | 230° |
| 2026-05-06 02:52 | 34.74499 | -83.10574 | 27667 ft | 430 kts | 230° |
| 2026-05-06 02:53 | 34.72342 | -83.13056 | 27152 ft | 425 kts | 229° |
| 2026-05-06 02:53 | 34.70205 | -83.15513 | 26580 ft | 420 kts | 229° |
| 2026-05-06 02:53 | 34.68085 | -83.17952 | 26031 ft | 416 kts | 229° |
| 2026-05-06 02:53 | 34.65995 | -83.20356 | 25471 ft | 412 kts | 229° |
| 2026-05-06 02:54 | 34.64617 | -83.21940 | 25113 ft | 410 kts | 229° |
| 2026-05-06 02:54 | 34.61860 | -83.25108 | 24383 ft | 406 kts | 228° |
| 2026-05-06 02:54 | 34.60500 | -83.26671 | 24011 ft | 404 kts | 228° |
| 2026-05-06 02:54 | 34.58464 | -83.29007 | 23418 ft | 402 kts | 228° |
| 2026-05-06 02:55 | 34.56436 | -83.31330 | 22803 ft | 399 kts | 228° |
| 2026-05-06 02:55 | 34.54434 | -83.33626 | 22232 ft | 395 kts | 228° |
| 2026-05-06 02:55 | 34.52441 | -83.35914 | 21674 ft | 391 kts | 228° |
| 2026-05-06 02:55 | 34.50476 | -83.38172 | 21137 ft | 387 kts | 228° |
| 2026-05-06 02:56 | 34.48531 | -83.40409 | 20592 ft | 384 kts | 228° |
| 2026-05-06 02:56 | 34.46603 | -83.42624 | 20066 ft | 380 kts | 228° |
| 2026-05-06 02:56 | 34.44711 | -83.44797 | 19562 ft | 377 kts | 228° |
| 2026-05-06 02:56 | 34.42812 | -83.46976 | 19044 ft | 375 kts | 228° |
| 2026-05-06 02:57 | 34.40925 | -83.49140 | 18537 ft | 372 kts | 228° |
| 2026-05-06 02:57 | 34.39045 | -83.51295 | 17953 ft | 371 kts | 228° |
| 2026-05-06 02:57 | 34.37179 | -83.53433 | 17392 ft | 368 kts | 228° |
| 2026-05-06 02:57 | 34.35323 | -83.55557 | 16860 ft | 365 kts | 228° |
| 2026-05-06 02:58 | 34.33485 | -83.57660 | 16338 ft | 362 kts | 228° |
| 2026-05-06 02:58 | 34.31670 | -83.59734 | 15836 ft | 359 kts | 228° |
| 2026-05-06 02:58 | 34.29860 | -83.61800 | 15337 ft | 356 kts | 227° |
| 2026-05-06 02:58 | 34.28054 | -83.63840 | 14846 ft | 354 kts | 226° |
| 2026-05-06 02:59 | 34.26216 | -83.65816 | 14356 ft | 353 kts | 225° |
| 2026-05-06 02:59 | 34.24371 | -83.67761 | 13871 ft | 351 kts | 225° |
| 2026-05-06 02:59 | 34.22528 | -83.69701 | 13310 ft | 350 kts | 225° |
| 2026-05-06 02:59 | 34.20700 | -83.71630 | 12898 ft | 345 kts | 225° |
| 2026-05-06 03:00 | 34.18933 | -83.73498 | 12762 ft | 332 kts | 225° |
| 2026-05-06 03:00 | 34.17230 | -83.75303 | 12608 ft | 321 kts | 225° |
| 2026-05-06 03:00 | 34.15577 | -83.77057 | 12470 ft | 310 kts | 225° |
| 2026-05-06 03:00 | 34.13977 | -83.78758 | 12328 ft | 300 kts | 225° |
| 2026-05-06 03:01 | 34.12436 | -83.80394 | 12194 ft | 290 kts | 225° |
| 2026-05-06 03:01 | 34.10935 | -83.81986 | 12079 ft | 285 kts | 225° |
| 2026-05-06 03:01 | 34.09436 | -83.83577 | 12016 ft | 288 kts | 225° |
| 2026-05-06 03:01 | 34.07955 | -83.85163 | 12002 ft | 281 kts | 226° |
| 2026-05-06 03:02 | 34.06517 | -83.86706 | 11990 ft | 269 kts | 226° |
| 2026-05-06 03:02 | 34.05151 | -83.88173 | 11969 ft | 257 kts | 226° |
| 2026-05-06 03:02 | 34.03810 | -83.89616 | 11443 ft | 265 kts | 226° |
| 2026-05-06 03:02 | 34.02425 | -83.91109 | 10902 ft | 274 kts | 225° |
| 2026-05-06 03:03 | 34.00999 | -83.92639 | 10559 ft | 274 kts | 225° |
| 2026-05-06 03:03 | 33.99581 | -83.94155 | 10301 ft | 271 kts | 225° |
| 2026-05-06 03:03 | 33.98162 | -83.95640 | 10025 ft | 270 kts | 219° |
| 2026-05-06 03:03 | 33.96447 | -83.96595 | 9719 ft | 277 kts | 198° |
| 2026-05-06 03:04 | 33.94511 | -83.96768 | 9394 ft | 282 kts | 184° |
| 2026-05-06 03:04 | 33.92551 | -83.96682 | 9101 ft | 281 kts | 182° |
| 2026-05-06 03:04 | 33.90605 | -83.96572 | 9025 ft | 279 kts | 183° |
| 2026-05-06 03:04 | 33.88693 | -83.96476 | 8962 ft | 269 kts | 183° |
| 2026-05-06 03:05 | 33.86883 | -83.96390 | 8901 ft | 251 kts | 184° |
| 2026-05-06 03:05 | 33.85196 | -83.96313 | 8755 ft | 234 kts | 184° |
| 2026-05-06 03:05 | 33.83606 | -83.96246 | 8430 ft | 229 kts | 184° |
| 2026-05-06 03:05 | 33.82002 | -83.96236 | 8010 ft | 224 kts | 194° |
| 2026-05-06 03:06 | 33.80696 | -83.97089 | 7559 ft | 213 kts | 230° |
| 2026-05-06 03:06 | 33.79786 | -83.98435 | 7180 ft | 209 kts | 232° |
| 2026-05-06 03:06 | 33.78881 | -83.99802 | 6698 ft | 209 kts | 232° |
| 2026-05-06 03:06 | 33.77973 | -84.01170 | 6220 ft | 209 kts | 232° |
| 2026-05-06 03:07 | 33.77081 | -84.02510 | 5951 ft | 198 kts | 231° |
| 2026-05-06 03:07 | 33.76267 | -84.03729 | 5789 ft | 178 kts | 231° |
| 2026-05-06 03:07 | 33.75503 | -84.04870 | 5349 ft | 175 kts | 230° |
| 2026-05-06 03:07 | 33.74740 | -84.06010 | 4903 ft | 174 kts | 230° |
| 2026-05-06 03:08 | 33.73981 | -84.07140 | 4425 ft | 174 kts | 229° |
| 2026-05-06 03:08 | 33.73221 | -84.08271 | 4122 ft | 173 kts | 229° |
| 2026-05-06 03:08 | 33.72455 | -84.09409 | 4055 ft | 177 kts | 229° |
| 2026-05-06 03:08 | 33.71689 | -84.10548 | 4006 ft | 173 kts | 229° |
| 2026-05-06 03:09 | 33.70936 | -84.11667 | 4009 ft | 172 kts | 229° |
| 2026-05-06 03:09 | 33.70185 | -84.12783 | 4004 ft | 172 kts | 229° |
| 2026-05-06 03:09 | 33.69430 | -84.13904 | 4003 ft | 173 kts | 229° |
| 2026-05-06 03:09 | 33.68673 | -84.15027 | 4001 ft | 174 kts | 229° |
| 2026-05-06 03:10 | 33.67920 | -84.16141 | 3995 ft | 174 kts | 229° |
| 2026-05-06 03:10 | 33.67156 | -84.17273 | 4000 ft | 174 kts | 229° |
| 2026-05-06 03:10 | 33.66393 | -84.18403 | 3995 ft | 175 kts | 229° |
| 2026-05-06 03:10 | 33.65629 | -84.19539 | 3998 ft | 175 kts | 231° |
| 2026-05-06 03:11 | 33.65226 | -84.20911 | 4014 ft | 179 kts | 260° |
| 2026-05-06 03:11 | 33.65096 | -84.22399 | 3945 ft | 180 kts | 258° |
| 2026-05-06 03:11 | 33.65001 | -84.23911 | 3716 ft | 181 kts | 262° |
| 2026-05-06 03:11 | 33.64975 | -84.25417 | 3492 ft | 181 kts | 263° |
| 2026-05-06 03:12 | 33.64973 | -84.26932 | 3258 ft | 181 kts | 263° |
| 2026-05-06 03:12 | 33.64966 | -84.28442 | 3026 ft | 180 kts | 263° |
| 2026-05-06 03:12 | 33.64965 | -84.29917 | 2779 ft | 174 kts | 264° |
| 2026-05-06 03:12 | 33.64964 | -84.31310 | 2568 ft | 161 kts | 263° |
| 2026-05-06 03:13 | 33.64963 | -84.32623 | 2356 ft | 153 kts | 263° |
| 2026-05-06 03:13 | 33.64964 | -84.33915 | 2114 ft | 151 kts | 264° |
| 2026-05-06 03:13 | 33.64985 | -84.35138 | 1946 ft | 148 kts | 264° |
| 2026-05-06 03:13 | 33.64966 | -84.36369 | 1746 ft | 147 kts | 262° |
| 2026-05-06 03:14 | 33.64950 | -84.37592 | 1631 ft | 141 kts | 265° |
| 2026-05-06 03:14 | 33.64955 | -84.38764 | 1413 ft | 143 kts | 267° |
| 2026-05-06 03:14 | 33.64953 | -84.39947 | 1249 ft | 141 kts | 266° |
| 2026-05-06 03:14 | 33.64948 | -84.41130 | 1065 ft | 142 kts | 266° |
| 2026-05-06 03:15 | 33.64946 | -84.42228 | 1035 ft | 118 kts | 270° |
| 2026-05-06 03:15 | 33.64950 | -84.42967 | 1034 ft | 44 kts | 271° |
| 2026-05-06 03:15 | 33.64913 | -84.43207 | 1035 ft | 18 kts | 250° |
| 2026-05-06 03:15 | 33.64856 | -84.43336 | 1034 ft | 17 kts | 251° |
| 2026-05-06 03:16 | 33.64843 | -84.43474 | 1035 ft | 13 kts | 268° |
| 2026-05-06 03:16 | 33.64798 | -84.43551 | 1035 ft | 12 kts | 202° |
| 2026-05-06 03:16 | 33.64724 | -84.43598 | 1035 ft | 12 kts | 212° |
| 2026-05-06 03:16 | 33.64653 | -84.43647 | 1034 ft | 12 kts | 208° |
| 2026-05-06 03:17 | 33.64583 | -84.43692 | 1034 ft | 11 kts | 208° |
| 2026-05-06 03:17 | 33.64535 | -84.43762 | 1034 ft | 11 kts | 252° |
| 2026-05-06 03:17 | 33.64522 | -84.43850 | 1034 ft | 11 kts | 261° |
| 2026-05-06 03:17 | 33.64510 | -84.43938 | 1034 ft | 11 kts | 261° |
| 2026-05-06 03:18 | 33.64499 | -84.44030 | 1034 ft | 11 kts | 261° |
| 2026-05-06 03:18 | 33.64454 | -84.44101 | 1034 ft | 12 kts | 212° |
| 2026-05-06 03:18 | 33.64376 | -84.44118 | 1034 ft | 11 kts | 177° |
| 2026-05-06 03:18 | 33.64298 | -84.44117 | 1034 ft | 11 kts | 180° |
| 2026-05-06 03:19 | 33.64223 | -84.44117 | 1034 ft | 11 kts | 180° |
| 2026-05-06 03:19 | 33.64149 | -84.44117 | 1035 ft | 10 kts | 180° |
| 2026-05-06 03:19 | 33.64078 | -84.44117 | 1035 ft | 10 kts | 180° |
| 2026-05-06 03:19 | 33.64010 | -84.44123 | 1035 ft | 10 kts | 210° |
| 2026-05-06 03:20 | 33.64001 | -84.44196 | 1035 ft | 0 kts | 270° |